createdAt,value
2023-02-24T00:02:06.515Z,85.75
2023-02-24T00:04:40.155Z,86.08
2023-02-24T00:07:10.914Z,86.35
2023-02-24T00:09:39.460Z,85.51
2023-02-24T00:12:16.929Z,84.98
2023-02-24T00:14:49.067Z,83.91
2023-02-24T00:17:17.967Z,83.90
2023-02-24T00:19:48.726Z,82.50
2023-02-24T00:22:18.947Z,83.59
2023-02-24T00:24:46.815Z,83.75
2023-02-24T00:27:19.307Z,84.91
2023-02-24T00:29:49.614Z,83.89
2023-02-24T00:32:17.627Z,83.84
2023-02-24T00:34:48.948Z,82.95
2023-02-24T00:37:25.322Z,83.87
2023-02-24T00:39:58.634Z,82.06
2023-02-24T00:42:26.905Z,82.57
2023-02-24T00:44:57.048Z,81.72
2023-02-24T00:47:29.180Z,80.30
2023-02-24T00:49:57.015Z,79.69
2023-02-24T00:52:27.974Z,78.37
2023-02-24T00:55:03.950Z,77.97
2023-02-24T00:57:34.608Z,79.00
2023-02-24T01:00:16.651Z,78.16
2023-02-24T01:02:47.911Z,77.07
2023-02-24T01:05:16.880Z,75.15
2023-02-24T01:07:44.604Z,76.12
2023-02-24T01:10:12.678Z,75.93
2023-02-24T01:12:49.794Z,76.86
2023-02-24T01:15:21.545Z,74.43
2023-02-24T01:17:49.635Z,75.70
2023-02-24T01:20:19.947Z,77.71
2023-02-24T01:22:53.789Z,77.12
2023-02-24T01:25:28.303Z,78.39
2023-02-24T01:27:58.345Z,77.76
2023-02-24T01:30:28.139Z,77.26
2023-02-24T01:32:58.744Z,76.17
2023-02-24T01:35:34.929Z,74.88
2023-02-24T01:38:02.929Z,75.94
2023-02-24T01:40:30.663Z,75.09
2023-02-24T01:42:58.437Z,74.32
2023-02-24T01:45:29.191Z,73.66
2023-02-24T01:48:07.291Z,71.47
2023-02-24T01:50:36.797Z,73.81
2023-02-24T01:53:10.371Z,72.77
2023-02-24T01:55:50.437Z,74.00
2023-02-24T01:58:28.496Z,72.10
2023-02-24T02:00:57.824Z,70.23
2023-02-24T02:03:35.296Z,69.97
2023-02-24T02:06:17.709Z,69.09
2023-02-24T02:08:48.889Z,67.69
2023-02-24T02:11:20.582Z,67.85
2023-02-24T02:13:50.753Z,68.04
2023-02-24T02:16:35.212Z,69.65
2023-02-24T02:19:29.872Z,70.06
2023-02-24T02:22:05.565Z,69.26
2023-02-24T02:25:09.572Z,69.46
2023-02-24T02:28:12.117Z,70.05
2023-02-24T02:31:50.762Z,69.39
2023-02-24T02:34:55.386Z,69.66
2023-02-24T02:37:57.679Z,70.60
2023-02-24T02:40:37.628Z,70.62
2023-02-24T02:43:26.236Z,69.99
2023-02-24T02:46:06.404Z,69.24
2023-02-24T02:48:49.046Z,67.51
2023-02-24T02:51:24.706Z,67.51
2023-02-24T02:54:01.405Z,67.81
2023-02-24T02:56:36.210Z,66.83
2023-02-24T02:59:07.245Z,67.38
2023-02-24T03:01:39.099Z,67.71
2023-02-24T03:04:09.767Z,68.57
2023-02-24T03:06:53.635Z,68.79
2023-02-24T03:09:35.989Z,68.39
2023-02-24T03:12:13.176Z,68.77
2023-02-24T03:14:51.041Z,69.45
2023-02-24T03:17:28.737Z,68.28
2023-02-24T03:20:17.521Z,67.48
2023-02-24T03:23:07.573Z,67.59
2023-02-24T03:25:58.824Z,68.00
2023-02-24T03:28:49.003Z,70.02
2023-02-24T03:31:27.850Z,66.96
2023-02-24T03:34:11.474Z,67.49
2023-02-24T03:36:39.328Z,66.98
2023-02-24T03:39:11.395Z,67.07
2023-02-24T03:41:57.436Z,65.24
2023-02-24T03:44:28.964Z,65.87
2023-02-24T03:46:56.677Z,64.82
2023-02-24T03:49:25.371Z,65.74
2023-02-24T03:52:01.002Z,64.70
2023-02-24T03:55:09.347Z,64.87
2023-02-24T03:58:14.089Z,66.15
2023-02-24T04:01:26.440Z,66.19
2023-02-24T04:04:27.705Z,67.24
2023-02-24T04:07:42.829Z,68.53
2023-02-24T04:10:36.647Z,67.48
2023-02-24T04:13:36.477Z,66.36
2023-02-24T04:16:28.007Z,67.10
2023-02-24T04:19:07.644Z,66.54
2023-02-24T04:21:38.860Z,65.80
2023-02-24T04:24:15.036Z,66.03
2023-02-24T04:26:47.269Z,66.29
2023-02-24T04:29:22.942Z,66.80
2023-02-24T04:32:01.791Z,64.98
2023-02-24T04:34:32.435Z,65.40
2023-02-24T04:37:02.499Z,65.76
2023-02-24T04:39:31.682Z,64.93
2023-02-24T04:42:01.694Z,66.04
2023-02-24T04:44:29.511Z,67.20
2023-02-24T04:46:58.116Z,67.12
2023-02-24T04:49:26.174Z,67.06
2023-02-24T04:51:57.170Z,67.14
2023-02-24T04:54:24.974Z,67.33
2023-02-24T04:56:52.779Z,68.76
2023-02-24T04:59:22.590Z,69.31
2023-02-24T05:01:54.896Z,68.54
2023-02-24T05:05:11.541Z,68.05
2023-02-24T05:11:51.420Z,67.74
2023-02-24T05:14:27.222Z,65.85
2023-02-24T05:16:59.990Z,65.78
2023-02-24T05:19:47.488Z,65.69
2023-02-24T05:22:18.603Z,63.79
2023-02-24T05:25:01.244Z,65.77
2023-02-24T05:27:31.562Z,64.98
2023-02-24T05:29:59.466Z,65.68
2023-02-24T05:32:49.665Z,66.19
2023-02-24T05:35:20.046Z,66.61
2023-02-24T05:37:51.732Z,66.86
2023-02-24T05:40:20.955Z,63.42
2023-02-24T05:42:49.946Z,64.42
2023-02-24T05:45:18.396Z,63.78
2023-02-24T05:47:47.372Z,62.66
2023-02-24T05:50:20.040Z,62.00
2023-02-24T05:52:48.511Z,61.07
2023-02-24T05:55:16.309Z,61.08
2023-02-24T05:57:44.152Z,61.20
2023-02-24T06:00:16.237Z,61.55
2023-02-24T06:02:49.629Z,60.94
2023-02-24T06:05:26.656Z,61.14
2023-02-24T06:08:05.265Z,60.93
2023-02-24T06:10:36.843Z,59.62
2023-02-24T06:13:08.320Z,58.78
2023-02-24T06:15:37.559Z,58.87
2023-02-24T06:18:12.968Z,59.63
2023-02-24T06:20:40.984Z,59.02
2023-02-24T06:23:08.843Z,59.33
2023-02-24T06:28:34.139Z,61.49
2023-02-24T06:31:08.640Z,61.51
2023-02-24T06:33:37.187Z,60.49
2023-02-24T06:36:05.680Z,61.58
2023-02-24T06:38:37.695Z,60.80
2023-02-24T06:41:10.944Z,61.62
2023-02-24T06:43:44.617Z,62.28
2023-02-24T06:46:16.828Z,61.60
2023-02-24T06:48:48.246Z,60.29
2023-02-24T06:51:19.244Z,58.47
2023-02-24T06:53:47.038Z,59.10
2023-02-24T06:56:19.803Z,59.91
2023-02-24T06:58:50.845Z,58.94
2023-02-24T07:01:28.697Z,59.67
2023-02-24T07:04:10.423Z,59.67
2023-02-24T07:06:43.849Z,60.13
2023-02-24T07:09:15.135Z,58.05
2023-02-24T07:11:51.907Z,57.02
2023-02-24T07:14:26.973Z,58.01
2023-02-24T07:16:55.233Z,59.31
2023-02-24T07:19:26.942Z,60.13
2023-02-24T07:22:09.922Z,60.11
2023-02-24T07:24:39.268Z,60.05
2023-02-24T07:27:11.550Z,60.62
2023-02-24T07:29:39.922Z,60.10
2023-02-24T07:32:10.266Z,60.43
2023-02-24T07:34:41.181Z,60.45
2023-02-24T07:37:10.321Z,61.29
2023-02-24T07:39:40.178Z,60.41
2023-02-24T07:42:12.191Z,59.81
2023-02-24T07:44:49.063Z,59.27
2023-02-24T07:47:17.012Z,59.57
2023-02-24T07:49:45.408Z,59.30
2023-02-24T07:52:13.358Z,58.34
2023-02-24T07:54:41.265Z,57.76
2023-02-24T07:57:13.377Z,57.74
2023-02-24T07:59:45.180Z,58.42
2023-02-24T08:02:13.728Z,58.78
2023-02-24T08:04:44.373Z,58.57
2023-02-24T08:07:14.258Z,57.66
2023-02-24T08:09:45.708Z,58.66
2023-02-24T08:12:21.347Z,58.25
2023-02-24T08:14:53.671Z,57.66
2023-02-24T08:17:27.016Z,57.16
2023-02-24T08:20:14.402Z,57.19
2023-02-24T08:22:46.664Z,57.04
2023-02-24T08:25:19.762Z,55.89
2023-02-24T08:28:07.781Z,54.92
2023-02-24T08:30:45.720Z,55.51
2023-02-24T08:33:22.893Z,54.02
2023-02-24T08:36:00.792Z,55.00
2023-02-24T08:38:42.519Z,56.67
2023-02-24T08:41:21.068Z,56.81
2023-02-24T08:43:49.724Z,55.40
2023-02-24T08:46:27.237Z,53.77
2023-02-24T08:49:01.512Z,53.52
2023-02-24T08:51:34.836Z,54.72
2023-02-24T08:54:11.158Z,54.07
2023-02-24T08:56:43.681Z,53.98
2023-02-24T08:59:37.533Z,54.21
2023-02-24T09:02:25.484Z,53.20
2023-02-24T09:05:13.191Z,55.21
2023-02-24T09:07:42.570Z,52.98
2023-02-24T09:10:19.244Z,53.75
2023-02-24T09:12:49.053Z,54.54
2023-02-24T09:15:17.622Z,54.52
2023-02-24T09:17:45.957Z,54.88
2023-02-24T09:20:27.660Z,53.66
2023-02-24T09:23:19.854Z,54.53
2023-02-24T09:25:50.852Z,54.61
2023-02-24T09:28:32.776Z,54.30
2023-02-24T09:31:04.929Z,54.58
2023-02-24T09:33:39.357Z,54.77
2023-02-24T09:36:28.265Z,54.26
2023-02-24T09:38:59.531Z,51.71
2023-02-24T09:41:58.296Z,52.81
2023-02-24T09:44:38.867Z,52.79
2023-02-24T09:47:55.226Z,51.93
2023-02-24T09:51:02.649Z,53.26
2023-02-24T09:53:49.302Z,54.21
2023-02-24T09:56:42.343Z,53.16
2023-02-24T09:59:26.230Z,53.73
2023-02-24T10:02:28.255Z,54.14
2023-02-24T10:05:28.884Z,55.56
2023-02-24T10:07:58.422Z,58.75
2023-02-24T10:10:35.855Z,59.37
2023-02-24T10:13:30.790Z,60.30
2023-02-24T10:16:12.032Z,61.19
2023-02-24T10:22:27.420Z,62.69
2023-02-24T10:25:22.127Z,60.85
2023-02-24T10:28:08.310Z,62.15
2023-02-24T10:30:50.717Z,62.36
2023-02-24T10:33:37.760Z,62.87
2023-02-24T10:36:09.663Z,63.41
2023-02-24T10:38:45.542Z,63.36
2023-02-24T10:41:15.764Z,63.72
2023-02-24T10:44:06.890Z,63.63
2023-02-24T10:46:41.679Z,67.14
2023-02-24T10:49:20.752Z,68.17
2023-02-24T10:51:53.300Z,69.22
2023-02-24T10:54:33.789Z,70.06
2023-02-24T10:57:08.148Z,70.65
2023-02-24T11:00:19.561Z,70.50
2023-02-24T11:03:08.415Z,72.18
2023-02-24T11:06:03.922Z,71.79
2023-02-24T11:08:39.830Z,72.26
2023-02-24T11:11:20.336Z,72.44
2023-02-24T11:14:08.919Z,72.89
2023-02-24T11:17:13.343Z,70.24
2023-02-24T11:20:15.634Z,72.67
2023-02-24T11:22:47.868Z,74.65
2023-02-24T11:25:26.259Z,74.33
2023-02-24T11:27:57.828Z,73.56
2023-02-24T11:30:48.817Z,75.51
2023-02-24T11:33:42.570Z,75.48
2023-02-24T11:36:43.500Z,74.53
2023-02-24T11:39:45.733Z,72.94
2023-02-24T11:42:28.349Z,70.52
2023-02-24T11:45:12.295Z,72.86
2023-02-24T11:47:53.000Z,73.41
2023-02-24T11:51:06.317Z,75.04
2023-02-24T11:53:55.367Z,73.30
2023-02-24T11:56:30.262Z,70.79
2023-02-24T11:59:19.294Z,70.87
2023-02-24T12:02:08.070Z,72.30
2023-02-24T12:04:49.159Z,71.21
2023-02-24T12:07:29.520Z,73.68
2023-02-24T12:10:19.364Z,72.79
2023-02-24T12:13:02.665Z,72.91
2023-02-24T12:15:38.969Z,72.39
2023-02-24T12:18:22.132Z,73.11
2023-02-24T12:21:42.081Z,73.06
2023-02-24T12:24:18.422Z,72.22
2023-02-24T12:27:09.593Z,73.07
2023-02-24T12:30:22.939Z,72.94
2023-02-24T12:33:20.398Z,75.54
2023-02-24T12:36:30.905Z,75.37
2023-02-24T12:39:31.838Z,74.33
2023-02-24T12:42:25.110Z,75.21
2023-02-24T12:45:23.436Z,75.00
2023-02-24T12:48:10.397Z,75.13
2023-02-24T12:51:09.162Z,75.66
2023-02-24T12:53:47.921Z,73.42
2023-02-24T12:56:41.483Z,71.46
2023-02-24T12:59:20.747Z,72.25
2023-02-24T13:02:26.772Z,72.69
2023-02-24T13:05:44.401Z,73.45
2023-02-24T13:08:46.216Z,74.99
2023-02-24T13:11:28.142Z,77.13
2023-02-24T13:14:40.847Z,77.22
2023-02-24T13:17:11.652Z,77.50
2023-02-24T13:19:41.718Z,77.55
2023-02-24T13:22:12.711Z,78.42
2023-02-24T13:25:09.496Z,77.05
2023-02-24T13:27:45.938Z,77.24
2023-02-24T13:30:38.582Z,77.46
2023-02-24T13:33:29.042Z,78.94
2023-02-24T13:36:18.617Z,78.33
2023-02-24T13:38:49.096Z,80.28
2023-02-24T13:41:29.147Z,80.25
2023-02-24T13:44:21.089Z,78.94
2023-02-24T13:47:34.283Z,79.94
2023-02-24T13:50:28.924Z,79.32
2023-02-24T13:53:40.780Z,79.10
2023-02-24T13:56:52.674Z,77.33
2023-02-24T13:59:35.172Z,78.69
2023-02-24T14:02:22.857Z,79.46
2023-02-24T14:04:56.089Z,77.96
2023-02-24T14:07:28.586Z,77.24
2023-02-24T14:10:14.761Z,78.54
2023-02-24T14:12:47.495Z,79.41
2023-02-24T14:15:27.660Z,80.76
2023-02-24T14:18:04.941Z,81.26
2023-02-24T14:20:37.416Z,80.18
2023-02-24T14:23:21.101Z,80.33
2023-02-24T14:25:59.356Z,81.48
2023-02-24T14:28:38.368Z,81.59
2023-02-24T14:31:16.667Z,81.15
2023-02-24T14:33:45.810Z,80.88
2023-02-24T14:36:18.816Z,79.55
2023-02-24T14:38:46.977Z,80.38
2023-02-24T14:41:27.709Z,79.92
2023-02-24T14:43:56.732Z,78.76
2023-02-24T14:46:31.664Z,79.96
2023-02-24T14:49:02.566Z,80.50
2023-02-24T14:51:35.627Z,81.24
2023-02-24T14:54:13.384Z,78.74
2023-02-24T14:56:41.602Z,76.47
2023-02-24T14:59:38.510Z,76.26
2023-02-24T15:02:30.515Z,77.90
2023-02-24T15:05:00.778Z,76.58
2023-02-24T15:07:32.529Z,77.84
2023-02-24T15:10:02.473Z,78.32
2023-02-24T15:12:46.828Z,79.17
2023-02-24T15:15:32.679Z,76.84
2023-02-24T15:18:10.146Z,78.28
2023-02-24T15:20:40.894Z,75.96
2023-02-24T15:23:34.319Z,76.15
2023-02-24T15:26:06.485Z,75.79
2023-02-24T15:28:56.384Z,76.34
2023-02-24T15:31:29.605Z,77.75
2023-02-24T15:34:05.390Z,76.77
2023-02-24T15:36:36.201Z,76.27
2023-02-24T15:39:13.600Z,75.61
2023-02-24T15:41:46.798Z,76.69
2023-02-24T15:44:53.899Z,76.85
2023-02-24T15:47:28.343Z,77.66
2023-02-24T15:49:59.343Z,78.54
2023-02-24T15:52:31.619Z,78.11
2023-02-24T15:55:02.675Z,77.79
2023-02-24T15:57:34.774Z,79.45
2023-02-24T16:00:13.267Z,78.82
2023-02-24T16:02:45.092Z,78.09
2023-02-24T16:05:14.321Z,77.15
2023-02-24T16:07:45.332Z,76.52
2023-02-24T16:10:26.199Z,76.45
2023-02-24T16:12:58.310Z,78.22
2023-02-24T16:15:34.177Z,78.42
2023-02-24T16:18:05.150Z,78.23
2023-02-24T16:20:41.643Z,78.78
2023-02-24T16:23:10.767Z,79.77
2023-02-24T16:25:44.914Z,79.09
2023-02-24T16:28:19.010Z,77.59
2023-02-24T16:31:01.366Z,77.97
2023-02-24T16:33:53.206Z,77.07
2023-02-24T16:36:58.796Z,78.02
2023-02-24T16:40:01.793Z,76.95
2023-02-24T16:42:43.004Z,77.05
2023-02-24T16:48:42.511Z,77.17
2023-02-24T17:01:02.407Z,77.05
2023-02-24T17:04:02.742Z,78.17
2023-02-24T17:06:44.466Z,78.99
2023-02-24T17:09:37.996Z,74.73
2023-02-24T17:12:41.646Z,76.91
2023-02-24T17:15:12.787Z,77.16
2023-02-24T17:18:21.558Z,76.90
2023-02-24T18:36:54.480Z,76.81
2023-02-24T19:00:48.635Z,78.64
2023-02-24T19:03:28.976Z,79.61
2023-02-24T19:06:03.323Z,80.26
2023-02-24T19:09:17.462Z,80.77
2023-02-24T19:12:26.385Z,81.44
2023-02-24T19:15:22.706Z,79.67
2023-02-24T19:18:01.788Z,79.21
2023-02-24T19:21:05.949Z,78.83
2023-02-24T19:23:49.332Z,79.75
2023-02-24T19:26:39.469Z,79.23
2023-02-24T19:29:29.737Z,78.86
2023-02-24T19:32:05.450Z,79.21
2023-02-24T19:34:55.061Z,77.62
2023-02-24T19:37:29.384Z,77.61
2023-02-24T19:39:58.093Z,78.38
2023-02-24T19:42:33.340Z,77.64
2023-02-24T19:45:07.988Z,77.45
2023-02-24T19:47:54.313Z,76.79
2023-02-24T19:57:51.726Z,77.79
2023-02-24T20:33:18.469Z,78.43
2023-02-24T20:39:37.553Z,79.23
2023-02-24T20:51:32.653Z,78.67
2023-02-24T20:54:27.285Z,80.57
2023-02-24T21:10:26.292Z,81.49
2023-02-24T21:12:54.684Z,81.70
2023-02-24T21:15:25.196Z,81.81
2023-02-24T21:17:56.187Z,82.38
2023-02-24T21:20:24.151Z,82.87
2023-02-24T21:22:54.589Z,81.30
2023-02-24T21:25:24.395Z,81.38
2023-02-24T21:27:52.107Z,78.13
2023-02-24T21:30:20.012Z,79.16
2023-02-24T21:32:50.759Z,79.06
2023-02-24T21:35:25.874Z,79.65
2023-02-24T21:38:04.172Z,79.96
2023-02-24T21:40:33.708Z,78.85
2023-02-24T21:43:02.086Z,79.92
2023-02-24T21:45:32.484Z,78.96
2023-02-24T21:48:06.504Z,77.51
2023-02-24T21:50:34.370Z,78.27
2023-02-24T21:53:02.052Z,77.94
2023-02-24T21:55:29.897Z,77.76
2023-02-24T21:58:00.905Z,78.02
2023-02-24T22:00:30.261Z,78.36
2023-02-24T22:02:58.490Z,77.65
2023-02-24T22:05:27.101Z,77.42
2023-02-24T22:07:54.767Z,76.29
2023-02-24T22:10:24.131Z,75.97
2023-02-24T22:12:56.675Z,76.97
2023-02-24T22:15:24.417Z,76.01
2023-02-24T22:17:52.572Z,76.70
2023-02-24T22:20:20.509Z,77.07
2023-02-24T22:22:48.450Z,76.60
2023-02-24T22:25:16.279Z,75.36
2023-02-24T22:27:43.941Z,75.84
2023-02-24T22:30:12.211Z,76.96
2023-02-24T22:32:42.253Z,78.39
2023-02-24T22:35:10.155Z,78.74
2023-02-24T22:37:40.098Z,77.74
2023-02-24T22:40:08.810Z,78.18
2023-02-24T22:42:36.541Z,77.39
2023-02-24T22:45:05.297Z,77.70
2023-02-24T22:47:33.254Z,76.38
2023-02-24T22:50:01.252Z,77.55
2023-02-24T22:52:32.480Z,77.01
2023-02-24T22:55:01.179Z,76.71
2023-02-24T22:57:32.615Z,76.67
2023-02-24T23:00:00.416Z,76.90
2023-02-24T23:02:28.086Z,76.93
2023-02-24T23:04:57.431Z,77.87
2023-02-24T23:07:25.313Z,76.88
2023-02-24T23:09:53.247Z,76.62
2023-02-24T23:12:22.232Z,77.10
2023-02-24T23:14:50.072Z,76.80
2023-02-24T23:17:21.919Z,76.70
2023-02-24T23:19:52.132Z,76.92
2023-02-24T23:22:19.801Z,76.92
2023-02-24T23:24:47.479Z,75.97
2023-02-24T23:27:15.121Z,76.58
2023-02-24T23:29:46.016Z,77.93
2023-02-24T23:32:14.526Z,76.65
2023-02-24T23:34:42.288Z,75.69
2023-02-24T23:37:11.991Z,75.73
2023-02-24T23:39:42.082Z,76.84
2023-02-24T23:42:10.034Z,77.85
2023-02-24T23:44:38.921Z,78.19
2023-02-24T23:47:07.026Z,77.52
2023-02-24T23:49:47.556Z,77.96
2023-02-24T23:52:16.117Z,78.12
2023-02-24T23:54:47.093Z,77.00
2023-02-24T23:57:14.771Z,77.37
2023-02-24T23:59:42.604Z,77.96
